Time;durP1;ratioP1;P1;durP2;ratioP2;P2;SDS_P1;SDS_P2;PMS_P1;PMS_P2;Temp;Humidity;BMP_temperature;BMP_pressure;BME280_temperature;BME280_humidity;BME280_pressure;Samples;Min_cycle;Max_cycle;Signal;HPM_P1;HPM_P2
2023/02/04 00:01:43;;;;;;;41.17;6.57;;;6.90;99.90;;;;;;5045054;28;20479;-63
2023/02/04 00:04:10;;;;;;;39.40;5.90;;;6.90;99.90;;;;;;5042532;28;20052;-63
2023/02/04 00:06:36;;;;;;;26.10;5.43;;;6.90;99.90;;;;;;5047822;28;20749;-63
2023/02/04 00:09:02;;;;;;;34.42;6.15;;;6.90;99.90;;;;;;5031072;28;20171;-63
2023/02/04 00:11:27;;;;;;;39.53;6.10;;;7.00;99.90;;;;;;5048320;28;20069;-63
2023/02/04 00:13:53;;;;;;;36.83;6.00;;;6.90;99.90;;;;;;5030064;28;20477;-63
2023/02/04 00:16:18;;;;;;;31.00;5.25;;;6.90;99.90;;;;;;5059501;28;20047;-63
2023/02/04 00:18:44;;;;;;;41.55;5.60;;;6.90;99.90;;;;;;5060060;28;20539;-63
2023/02/04 00:21:10;;;;;;;33.33;6.07;;;6.90;99.90;;;;;;5049703;28;20029;-63
2023/02/04 00:23:36;;;;;;;35.17;5.75;;;6.90;99.90;;;;;;5049250;28;20033;-64
2023/02/04 00:26:01;;;;;;;38.08;6.13;;;6.90;99.90;;;;;;5031043;28;20049;-63
2023/02/04 00:28:27;;;;;;;39.90;5.75;;;6.90;99.90;;;;;;5049816;28;20498;-63
2023/02/04 00:30:52;;;;;;;39.83;5.10;;;6.90;99.90;;;;;;5049044;28;20049;-63
2023/02/04 00:33:18;;;;;;;32.08;6.13;;;6.90;99.90;;;;;;5048422;28;20083;-63
2023/02/04 00:35:44;;;;;;;35.42;7.10;;;6.90;99.90;;;;;;5051330;28;20036;-63
2023/02/04 00:38:10;;;;;;;36.50;6.20;;;6.90;99.90;;;;;;5042359;28;20044;-63
2023/02/04 00:40:36;;;;;;;34.25;6.03;;;6.90;99.90;;;;;;5033061;28;20032;-63
2023/02/04 00:43:01;;;;;;;31.95;6.22;;;7.00;99.90;;;;;;5030361;28;20042;-63
2023/02/04 00:45:27;;;;;;;36.55;6.05;;;6.90;99.90;;;;;;5048779;28;20539;-63
2023/02/04 00:47:53;;;;;;;37.67;5.82;;;6.90;99.90;;;;;;5046257;28;20040;-63
2023/02/04 00:50:18;;;;;;;36.33;5.82;;;6.90;99.90;;;;;;5052452;28;20072;-63
2023/02/04 00:52:44;;;;;;;35.17;5.57;;;6.90;99.90;;;;;;5046370;28;20077;-63
2023/02/04 00:55:11;;;;;;;34.92;5.70;;;6.90;99.90;;;;;;5055587;28;20118;-62
2023/02/04 00:57:37;;;;;;;31.95;4.82;;;6.90;99.90;;;;;;5070444;28;20117;-63
2023/02/04 01:00:04;;;;;;;37.00;5.55;;;6.90;99.90;;;;;;5035892;28;20052;-64
2023/02/04 01:02:30;;;;;;;38.40;5.63;;;6.90;99.90;;;;;;5033372;28;20045;-63
2023/02/04 01:04:55;;;;;;;32.88;6.43;;;6.90;99.90;;;;;;5058445;28;20493;-64
2023/02/04 01:07:21;;;;;;;38.40;5.30;;;6.80;99.90;;;;;;5055150;28;20118;-63
2023/02/04 01:09:47;;;;;;;40.90;6.88;;;6.90;99.90;;;;;;5055691;28;20064;-63
2023/02/04 01:12:12;;;;;;;41.15;6.38;;;7.00;99.90;;;;;;5051299;28;20051;-63
2023/02/04 01:14:38;;;;;;;36.78;5.53;;;6.90;99.90;;;;;;5051716;28;20044;-62
2023/02/04 01:17:03;;;;;;;33.00;5.57;;;6.90;99.90;;;;;;5032630;28;20040;-63
2023/02/04 01:19:29;;;;;;;35.47;6.40;;;6.90;99.90;;;;;;5036782;28;20040;-63
2023/02/04 01:21:55;;;;;;;34.75;5.95;;;6.90;99.90;;;;;;5051227;28;20029;-63
2023/02/04 01:24:20;;;;;;;38.03;5.55;;;6.80;99.90;;;;;;5051927;28;20037;-62
2023/02/04 01:26:46;;;;;;;36.80;5.82;;;6.90;99.90;;;;;;5033482;28;20041;-63
2023/02/04 01:29:11;;;;;;;31.42;5.22;;;6.90;99.90;;;;;;5051808;28;20037;-63
2023/02/04 01:31:37;;;;;;;33.60;5.68;;;6.90;99.90;;;;;;5051604;28;20036;-62
2023/02/04 01:34:03;;;;;;;37.58;5.63;;;6.90;99.90;;;;;;5032955;28;20048;-62
2023/02/04 01:36:28;;;;;;;31.40;4.88;;;6.90;99.90;;;;;;5057633;28;20029;-63
2023/02/04 01:38:54;;;;;;;36.50;5.20;;;6.90;99.90;;;;;;5051333;28;20044;-62
2023/02/04 01:41:19;;;;;;;44.00;6.93;;;6.90;99.90;;;;;;5051780;28;20036;-62
2023/02/04 01:43:46;;;;;;;31.35;5.72;;;6.60;99.90;;;;;;5046675;28;20025;-62
2023/02/04 01:46:12;;;;;;;35.83;5.70;;;6.90;99.90;;;;;;5050347;28;20426;-63
2023/02/04 01:48:38;;;;;;;33.95;5.43;;;6.80;99.90;;;;;;5051266;28;20037;-63
2023/02/04 01:51:07;;;;;;;34.58;5.93;;;6.90;99.90;;;;;;5051346;28;20047;-63
2023/02/04 01:53:34;;;;;;;32.30;5.28;;;6.90;99.90;;;;;;5050342;28;20377;-64
2023/02/04 01:56:01;;;;;;;32.40;5.85;;;6.90;99.90;;;;;;5033370;28;20399;-62
2023/02/04 01:58:30;;;;;;;33.63;5.63;;;6.90;99.90;;;;;;5047934;28;20395;-63
2023/02/04 02:00:56;;;;;;;35.03;5.70;;;6.90;99.90;;;;;;5049990;28;20041;-63
2023/02/04 02:03:22;;;;;;;35.75;5.97;;;6.90;99.90;;;;;;5050018;28;20450;-63
2023/02/04 02:05:51;;;;;;;46.17;5.90;;;6.90;99.90;;;;;;5032943;28;20040;-63
2023/02/04 02:08:17;;;;;;;42.50;5.72;;;6.90;99.90;;;;;;5047335;28;20037;-63
2023/02/04 02:10:45;;;;;;;37.95;5.70;;;6.90;99.90;;;;;;5051112;28;20040;-63
2023/02/04 02:13:15;;;;;;;38.92;5.60;;;6.90;99.90;;;;;;5050351;28;20479;-63
2023/02/04 02:15:41;;;;;;;29.95;5.82;;;6.90;99.90;;;;;;5050154;28;20045;-63
2023/02/04 02:18:07;;;;;;;38.92;5.30;;;6.90;99.90;;;;;;5032773;28;20095;-63
2023/02/04 02:20:32;;;;;;;30.55;5.35;;;6.90;99.90;;;;;;5033256;28;20040;-63
2023/02/04 02:23:17;;;;;;;32.55;5.88;;;6.90;99.90;;;;;;5048643;28;20037;-63
2023/02/04 02:25:43;;;;;;;40.13;6.10;;;6.90;99.90;;;;;;5050411;28;20086;-63
2023/02/04 02:28:16;;;;;;;37.65;5.82;;;6.90;99.90;;;;;;5050061;28;21137;-63
2023/02/04 02:30:44;;;;;;;34.70;5.43;;;6.90;99.90;;;;;;5050916;28;20048;-63
2023/02/04 02:33:13;;;;;;;34.47;4.55;;;6.90;99.90;;;;;;5033903;28;20389;-63
2023/02/04 02:35:42;;;;;;;35.80;6.07;;;6.90;99.90;;;;;;5031841;28;20041;-63
2023/02/04 02:38:08;;;;;;;35.25;5.40;;;6.90;99.90;;;;;;5048473;28;20045;-63
2023/02/04 02:40:34;;;;;;;30.08;4.88;;;6.90;99.90;;;;;;5043963;28;20044;-63
2023/02/04 02:43:00;;;;;;;37.53;6.00;;;6.90;99.90;;;;;;5032234;28;20042;-64
2023/02/04 02:45:28;;;;;;;21.58;4.20;;;6.90;99.90;;;;;;5041823;28;20036;-63
2023/02/04 02:47:57;;;;;;;34.40;4.95;;;6.90;99.90;;;;;;5049203;28;20045;-63
2023/02/04 02:50:27;;;;;;;30.90;6.03;;;6.90;99.90;;;;;;5049191;28;20033;-63
2023/02/04 02:52:53;;;;;;;40.35;6.40;;;6.90;99.90;;;;;;5051110;28;20044;-63
2023/02/04 02:55:22;;;;;;;28.60;4.97;;;6.90;99.90;;;;;;5050378;28;20036;-62
2023/02/04 02:57:49;;;;;;;44.95;6.53;;;6.90;99.90;;;;;;5053659;28;20278;-63
2023/02/04 03:00:20;;;;;;;34.47;6.22;;;6.90;99.90;;;;;;5046593;28;20098;-62
2023/02/04 03:03:02;;;;;;;33.13;5.35;;;7.00;99.90;;;;;;5048015;28;20044;-63
2023/02/04 03:05:31;;;;;;;34.45;5.32;;;7.00;99.90;;;;;;5023229;28;20045;-63
2023/02/04 03:07:57;;;;;;;41.75;5.70;;;7.00;99.90;;;;;;5030033;28;20041;-64
2023/02/04 03:10:22;;;;;;;31.85;6.05;;;7.00;99.90;;;;;;5052020;28;20090;-63
2023/02/04 03:12:48;;;;;;;31.65;5.35;;;6.90;99.90;;;;;;5031618;28;20045;-63
2023/02/04 03:15:14;;;;;;;36.60;5.40;;;6.90;99.90;;;;;;5050739;28;20037;-64
2023/02/04 03:17:40;;;;;;;36.42;5.05;;;6.90;99.90;;;;;;5049905;28;20041;-63
2023/02/04 03:20:07;;;;;;;29.42;4.90;;;6.90;99.90;;;;;;5051315;28;20037;-64
2023/02/04 03:22:33;;;;;;;39.05;5.95;;;6.90;99.90;;;;;;5032224;28;20037;-64
2023/02/04 03:24:59;;;;;;;40.03;6.07;;;6.90;99.90;;;;;;5049612;28;20033;-64
2023/02/04 03:27:24;;;;;;;31.67;5.13;;;6.90;99.90;;;;;;5047569;28;20048;-63
2023/02/04 03:29:50;;;;;;;34.15;5.97;;;6.90;99.90;;;;;;5032127;28;20479;-63
2023/02/04 03:32:16;;;;;;;29.42;4.97;;;6.90;99.90;;;;;;5047171;28;20033;-63
2023/02/04 03:34:41;;;;;;;36.53;5.85;;;6.90;99.90;;;;;;5029261;28;20045;-64
2023/02/04 03:37:07;;;;;;;33.05;5.50;;;6.90;99.90;;;;;;5049068;28;20049;-64
2023/02/04 03:39:33;;;;;;;33.58;5.75;;;6.90;99.90;;;;;;5049855;28;20032;-64
2023/02/04 03:41:59;;;;;;;37.17;5.45;;;6.80;99.90;;;;;;5049107;28;20037;-64
2023/02/04 03:44:27;;;;;;;29.27;5.53;;;6.90;99.90;;;;;;5050156;28;20044;-63
2023/02/04 03:46:54;;;;;;;28.75;5.35;;;6.90;99.90;;;;;;5049311;28;20459;-63
2023/02/04 03:49:23;;;;;;;35.88;5.97;;;6.80;99.90;;;;;;5048967;28;20110;-63
2023/02/04 03:51:49;;;;;;;32.13;5.03;;;6.80;99.90;;;;;;5049235;28;20123;-63
2023/02/04 03:54:15;;;;;;;35.25;6.05;;;6.80;99.90;;;;;;5049120;28;20128;-63
2023/02/04 03:56:40;;;;;;;36.50;6.47;;;6.80;99.90;;;;;;5032903;28;20049;-63
2023/02/04 03:59:06;;;;;;;27.95;4.90;;;6.80;99.90;;;;;;5050774;28;20120;-63
2023/02/04 04:01:31;;;;;;;33.92;6.35;;;6.90;99.90;;;;;;5029239;28;20091;-63
2023/02/04 04:03:57;;;;;;;32.92;5.43;;;6.80;99.90;;;;;;5049914;28;20502;-63
2023/02/04 04:06:23;;;;;;;34.38;5.35;;;6.80;99.90;;;;;;5030520;28;20032;-63
2023/02/04 04:08:49;;;;;;;33.42;4.72;;;6.80;99.90;;;;;;5031813;28;20511;-63
2023/02/04 04:11:14;;;;;;;34.47;5.38;;;6.80;99.90;;;;;;5029535;28;20079;-63
2023/02/04 04:13:40;;;;;;;33.72;5.22;;;6.80;99.90;;;;;;5032813;28;20143;-64
2023/02/04 04:16:07;;;;;;;36.58;6.05;;;6.80;99.90;;;;;;5049315;28;20045;-64
2023/02/04 04:18:34;;;;;;;37.67;5.22;;;6.70;99.90;;;;;;5031172;28;20220;-64
2023/02/04 04:20:59;;;;;;;31.67;5.10;;;6.70;99.90;;;;;;5047536;28;20033;-64
2023/02/04 04:23:25;;;;;;;37.75;5.80;;;6.70;99.90;;;;;;5046124;28;20044;-62
2023/02/04 04:25:50;;;;;;;38.22;5.65;;;6.70;99.90;;;;;;5048557;28;20033;-63
2023/02/04 04:28:16;;;;;;;34.00;5.72;;;6.70;99.90;;;;;;5032623;28;20037;-62
2023/02/04 04:30:42;;;;;;;34.13;6.07;;;6.70;99.90;;;;;;5051426;28;20041;-64
2023/02/04 04:33:07;;;;;;;33.45;6.10;;;6.70;99.90;;;;;;5029200;28;20127;-62
2023/02/04 04:35:33;;;;;;;32.95;5.25;;;6.70;99.90;;;;;;5049991;28;20391;-62
2023/02/04 04:38:00;;;;;;;33.33;5.10;;;6.70;99.90;;;;;;5045281;28;20053;-62
2023/02/04 04:40:25;;;;;;;29.50;4.72;;;6.70;99.90;;;;;;5052705;28;20059;-62
2023/02/04 04:42:51;;;;;;;28.15;5.57;;;6.70;99.90;;;;;;5048705;28;20115;-62
2023/02/04 04:45:17;;;;;;;33.20;5.95;;;6.70;99.90;;;;;;5026933;28;20028;-63
2023/02/04 04:47:42;;;;;;;35.45;5.15;;;6.70;99.90;;;;;;5051855;28;20052;-64
2023/02/04 04:50:08;;;;;;;31.60;5.28;;;6.70;99.90;;;;;;5046915;28;20401;-61
2023/02/04 04:52:34;;;;;;;27.08;4.93;;;6.60;99.90;;;;;;5052842;28;20033;-62
2023/02/04 04:54:59;;;;;;;36.00;5.38;;;6.60;99.90;;;;;;5047664;28;20078;-62
2023/02/04 04:57:25;;;;;;;42.10;5.80;;;6.60;99.90;;;;;;5051175;28;20033;-63
2023/02/04 04:59:51;;;;;;;33.53;6.03;;;6.60;99.90;;;;;;5052035;28;20041;-64
2023/02/04 05:02:16;;;;;;;31.70;5.75;;;6.60;99.90;;;;;;5052510;28;20060;-63
2023/02/04 05:04:42;;;;;;;30.50;5.45;;;6.80;99.90;;;;;;5048114;28;20041;-63
2023/02/04 05:07:07;;;;;;;29.48;5.53;;;6.60;99.90;;;;;;5049581;28;20037;-63
2023/02/04 05:09:33;;;;;;;33.20;5.78;;;6.60;99.90;;;;;;5053881;28;20037;-63
2023/02/04 05:11:59;;;;;;;31.58;5.68;;;6.70;99.90;;;;;;5034793;28;20040;-67
2023/02/04 05:14:24;;;;;;;37.33;5.88;;;6.60;99.90;;;;;;5031984;28;20040;-63
2023/02/04 05:16:50;;;;;;;33.60;4.93;;;6.60;99.90;;;;;;5048175;28;20036;-63
2023/02/04 05:19:15;;;;;;;36.33;5.03;;;6.60;99.90;;;;;;5051289;28;20072;-64
2023/02/04 05:21:41;;;;;;;33.63;5.03;;;6.60;99.90;;;;;;5051901;28;20455;-63
2023/02/04 05:24:07;;;;;;;36.83;5.82;;;6.60;99.90;;;;;;5043481;28;20143;-65
2023/02/04 05:26:33;;;;;;;37.97;6.18;;;6.60;99.90;;;;;;5044090;28;20116;-63
2023/02/04 05:28:59;;;;;;;27.23;4.63;;;6.70;99.90;;;;;;5047084;28;20048;-63
2023/02/04 05:31:25;;;;;;;44.78;6.47;;;6.60;99.90;;;;;;5049770;28;20495;-63
2023/02/04 05:33:50;;;;;;;37.70;5.57;;;6.60;99.90;;;;;;5052155;28;20033;-63
2023/02/04 05:36:16;;;;;;;40.05;5.68;;;6.60;99.90;;;;;;5056251;28;20132;-63
2023/02/04 05:38:42;;;;;;;31.63;5.35;;;6.60;99.90;;;;;;5029685;28;20403;-63
2023/02/04 05:41:08;;;;;;;36.80;5.68;;;6.60;99.90;;;;;;5047885;28;20088;-64
2023/02/04 05:43:34;;;;;;;32.20;4.70;;;6.60;99.90;;;;;;5041811;28;20435;-65
2023/02/04 05:46:00;;;;;;;30.40;5.22;;;6.60;99.90;;;;;;5049571;28;20044;-63
2023/02/04 05:48:26;;;;;;;38.28;5.90;;;6.60;99.90;;;;;;5050808;28;20378;-63
2023/02/04 05:50:51;;;;;;;30.15;6.03;;;6.60;99.90;;;;;;5054315;28;20067;-67
2023/02/04 05:53:17;;;;;;;32.90;6.05;;;6.60;99.90;;;;;;5045148;28;20041;-63
2023/02/04 05:55:43;;;;;;;27.85;5.10;;;6.60;99.90;;;;;;5036555;28;20568;-63
2023/02/04 05:58:08;;;;;;;40.13;5.47;;;6.60;99.90;;;;;;5050608;28;20033;-64
2023/02/04 06:00:34;;;;;;;29.85;4.35;;;6.60;99.90;;;;;;5045776;28;20082;-63
2023/02/04 06:02:59;;;;;;;26.65;4.47;;;6.60;99.90;;;;;;5031800;28;20201;-63
2023/02/04 06:05:25;;;;;;;29.17;4.68;;;6.60;99.90;;;;;;5038136;28;20047;-64
2023/02/04 06:07:51;;;;;;;32.72;4.97;;;6.60;99.90;;;;;;5036877;28;20123;-64
2023/02/04 06:10:16;;;;;;;30.73;4.78;;;6.60;99.90;;;;;;5031165;28;20045;-66
2023/02/04 06:12:42;;;;;;;32.67;4.93;;;6.50;99.90;;;;;;5049435;28;20033;-63
2023/02/04 06:15:08;;;;;;;26.13;5.10;;;6.50;99.90;;;;;;5026022;28;20033;-63
2023/02/04 06:17:34;;;;;;;35.00;5.15;;;6.50;99.90;;;;;;5030774;28;20042;-63
2023/02/04 06:20:00;;;;;;;31.58;4.78;;;6.50;99.90;;;;;;5050403;28;20067;-63
2023/02/04 06:22:25;;;;;;;30.85;4.55;;;6.50;99.90;;;;;;5050663;28;20025;-63
2023/02/04 06:24:51;;;;;;;33.20;5.75;;;6.50;99.90;;;;;;5050812;28;20040;-67
2023/02/04 06:27:22;;;;;;;38.78;4.93;;;6.50;99.90;;;;;;5050392;28;20491;-66
2023/02/04 06:29:49;;;;;;;26.88;4.22;;;6.50;99.90;;;;;;5051169;28;20037;-63
2023/02/04 06:32:15;;;;;;;25.85;4.28;;;6.50;99.90;;;;;;5035288;28;20032;-66
2023/02/04 06:34:41;;;;;;;32.72;5.18;;;6.40;99.90;;;;;;5035450;28;20044;-66
2023/02/04 06:37:07;;;;;;;30.55;4.57;;;6.40;99.90;;;;;;5053895;28;20044;-63
2023/02/04 06:39:32;;;;;;;35.83;5.63;;;6.40;99.90;;;;;;5048378;28;20025;-63
2023/02/04 06:41:58;;;;;;;31.48;4.90;;;6.40;99.90;;;;;;5023838;28;20514;-64
2023/02/04 06:44:23;;;;;;;28.75;5.57;;;6.40;99.90;;;;;;5028655;28;20045;-65
2023/02/04 06:46:49;;;;;;;28.05;5.28;;;6.40;99.90;;;;;;5061871;28;20306;-62
2023/02/04 06:49:15;;;;;;;36.90;4.80;;;6.40;99.90;;;;;;5031274;28;20398;-63
2023/02/04 06:51:40;;;;;;;37.40;5.18;;;6.40;99.90;;;;;;5030692;28;20580;-63
2023/02/04 06:54:06;;;;;;;37.40;6.47;;;6.40;99.90;;;;;;5048767;28;20438;-63
2023/02/04 06:56:32;;;;;;;35.78;5.53;;;6.40;99.90;;;;;;5032429;28;20072;-65
2023/02/04 06:58:57;;;;;;;37.22;5.70;;;6.40;99.90;;;;;;5031787;28;20526;-63
2023/02/04 07:01:23;;;;;;;32.78;4.80;;;6.40;99.90;;;;;;5050202;28;20025;-63
2023/02/04 07:03:48;;;;;;;30.80;5.75;;;6.40;99.90;;;;;;5031625;28;20045;-63
2023/02/04 07:06:14;;;;;;;44.97;5.63;;;6.40;99.90;;;;;;5048661;28;20108;-67
2023/02/04 07:08:39;;;;;;;35.45;5.80;;;6.40;99.90;;;;;;5053550;28;20072;-63
2023/02/04 07:11:05;;;;;;;35.60;5.15;;;6.40;99.90;;;;;;5052223;28;20056;-63
2023/02/04 07:13:31;;;;;;;36.15;5.53;;;6.40;99.90;;;;;;5034364;28;20477;-63
2023/02/04 07:15:56;;;;;;;30.73;6.03;;;6.40;99.90;;;;;;5041609;28;20040;-64
2023/02/04 07:18:22;;;;;;;30.23;5.50;;;6.40;99.90;;;;;;5025389;28;20038;-63
2023/02/04 07:20:48;;;;;;;32.85;6.00;;;6.40;99.90;;;;;;5044421;28;20036;-63
2023/02/04 07:23:13;;;;;;;29.40;4.70;;;6.40;99.90;;;;;;5042554;28;20036;-63
2023/02/04 07:25:39;;;;;;;32.97;5.30;;;6.40;99.90;;;;;;5042428;28;20543;-63
2023/02/04 07:28:05;;;;;;;35.60;5.43;;;6.40;99.90;;;;;;5043200;28;20411;-65
2023/02/04 07:30:31;;;;;;;32.00;5.25;;;6.40;99.90;;;;;;5028236;28;20113;-65
2023/02/04 07:32:57;;;;;;;30.83;5.13;;;6.40;99.90;;;;;;5047903;28;20044;-66
2023/02/04 07:35:23;;;;;;;34.67;5.57;;;6.40;99.90;;;;;;5049148;28;20036;-64
2023/02/04 07:37:49;;;;;;;38.63;5.65;;;6.40;99.90;;;;;;5039139;28;20396;-66
2023/02/04 07:40:15;;;;;;;28.42;4.90;;;6.40;99.90;;;;;;5025171;28;20033;-63
2023/02/04 07:42:40;;;;;;;41.47;5.88;;;6.50;99.90;;;;;;5049345;28;20040;-63
2023/02/04 07:45:07;;;;;;;46.88;6.32;;;6.50;99.90;;;;;;5020751;28;20037;-67
2023/02/04 07:47:32;;;;;;;31.88;5.03;;;6.50;99.90;;;;;;5019394;28;20073;-63
2023/02/04 07:49:58;;;;;;;38.00;5.40;;;6.50;99.90;;;;;;5039378;28;20068;-63
2023/02/04 07:52:24;;;;;;;30.83;4.97;;;6.50;99.90;;;;;;5041874;28;20037;-66
2023/02/04 07:54:51;;;;;;;42.30;6.05;;;6.60;99.90;;;;;;5044558;28;20056;-64
2023/02/04 07:57:18;;;;;;;34.38;5.28;;;6.60;99.90;;;;;;5050486;28;20036;-63
2023/02/04 07:59:44;;;;;;;40.33;5.85;;;6.60;99.90;;;;;;5038082;28;20037;-65
2023/02/04 08:02:10;;;;;;;36.42;5.57;;;6.60;99.90;;;;;;5050836;28;20450;-63
2023/02/04 08:04:36;;;;;;;41.67;6.18;;;6.60;99.90;;;;;;5047224;28;20379;-62
2023/02/04 08:07:05;;;;;;;39.65;6.13;;;6.60;99.90;;;;;;5011864;28;20045;-63
2023/02/04 08:09:30;;;;;;;33.45;5.75;;;6.70;99.90;;;;;;5039648;28;20474;-65
2023/02/04 08:11:56;;;;;;;36.60;6.38;;;6.70;99.90;;;;;;5036691;28;20033;-65
2023/02/04 08:14:22;;;;;;;34.58;5.80;;;6.70;99.90;;;;;;5031876;28;20040;-66
2023/02/04 08:16:47;;;;;;;45.00;5.18;;;6.70;99.90;;;;;;5047301;28;20068;-63
2023/02/04 08:19:17;;;;;;;35.08;5.07;;;6.70;99.90;;;;;;5051534;28;20108;-64
2023/02/04 08:21:44;;;;;;;38.78;5.35;;;6.80;99.90;;;;;;5052782;28;20414;-64
2023/02/04 08:24:11;;;;;;;33.72;5.47;;;6.70;99.90;;;;;;5052406;28;20045;-64
2023/02/04 08:26:37;;;;;;;38.50;6.13;;;6.80;99.90;;;;;;5028929;28;20041;-64
2023/02/04 08:29:03;;;;;;;38.60;5.80;;;6.80;99.90;;;;;;5034777;28;20048;-65
2023/02/04 08:31:29;;;;;;;37.35;5.63;;;6.90;99.90;;;;;;5049778;28;20033;-64
2023/02/04 08:33:54;;;;;;;32.35;5.25;;;6.90;99.90;;;;;;5047323;28;20037;-64
2023/02/04 08:36:20;;;;;;;27.48;4.90;;;6.90;99.90;;;;;;5051403;28;20045;-65
2023/02/04 08:38:45;;;;;;;26.55;4.68;;;6.80;99.90;;;;;;5043866;28;20120;-62
2023/02/04 08:41:11;;;;;;;23.17;4.75;;;6.90;99.90;;;;;;5039743;28;20033;-64
2023/02/04 08:43:36;;;;;;;22.45;4.03;;;6.90;99.90;;;;;;5042195;28;20068;-64
2023/02/04 08:46:02;;;;;;;19.48;3.58;;;7.00;99.90;;;;;;5047129;28;20037;-65
2023/02/04 08:48:28;;;;;;;24.17;3.30;;;7.00;99.90;;;;;;5044143;28;20049;-65
2023/02/04 08:50:54;;;;;;;18.63;2.95;;;7.00;99.90;;;;;;5036513;28;20064;-65
2023/02/04 08:53:19;;;;;;;16.20;2.70;;;7.00;99.90;;;;;;5025101;28;20064;-63
2023/02/04 08:55:45;;;;;;;15.25;2.15;;;7.00;99.90;;;;;;5026379;28;20041;-65
2023/02/04 08:58:10;;;;;;;13.70;2.45;;;7.00;99.90;;;;;;5042597;28;20048;-65
2023/02/04 09:00:36;;;;;;;13.30;2.90;;;7.00;99.90;;;;;;5046692;28;20041;-64
2023/02/04 09:03:02;;;;;;;14.65;2.67;;;7.00;99.90;;;;;;5045914;28;20549;-63
2023/02/04 09:05:27;;;;;;;11.60;2.50;;;7.00;99.90;;;;;;5045077;28;20060;-65
2023/02/04 09:07:53;;;;;;;12.75;2.20;;;7.00;99.90;;;;;;5050819;28;20095;-64
2023/02/04 09:10:19;;;;;;;10.88;2.83;;;7.20;99.90;;;;;;5045619;28;20071;-64
2023/02/04 09:12:44;;;;;;;10.85;2.25;;;7.00;99.90;;;;;;5031400;28;20033;-64
2023/02/04 09:15:10;;;;;;;11.45;2.45;;;7.10;99.90;;;;;;5044560;28;20089;-64
2023/02/04 09:17:37;;;;;;;12.43;2.97;;;7.10;99.90;;;;;;5048506;28;20040;-64
2023/02/04 09:20:03;;;;;;;10.52;2.90;;;7.10;99.90;;;;;;5047600;28;20036;-62
2023/02/04 09:22:29;;;;;;;13.45;2.85;;;7.10;99.90;;;;;;5026225;28;20395;-64
2023/02/04 09:24:55;;;;;;;12.43;2.70;;;7.20;99.90;;;;;;5042553;28;20470;-64
2023/02/04 09:27:20;;;;;;;13.57;2.63;;;7.30;99.90;;;;;;5042899;28;20083;-64
2023/02/04 09:29:46;;;;;;;16.38;3.13;;;7.30;99.90;;;;;;5045879;28;20087;-62
2023/02/04 09:32:12;;;;;;;15.43;2.65;;;7.30;99.90;;;;;;5028829;28;20068;-64
2023/02/04 09:34:38;;;;;;;19.40;3.08;;;7.30;99.90;;;;;;5043941;28;20040;-65
2023/02/04 09:37:03;;;;;;;12.25;2.80;;;7.40;99.90;;;;;;5024602;28;20049;-64
2023/02/04 09:39:29;;;;;;;11.02;2.20;;;7.40;99.90;;;;;;5041123;28;20036;-64
2023/02/04 09:41:55;;;;;;;12.98;2.38;;;7.40;99.90;;;;;;5041091;28;20039;-61
2023/02/04 09:44:24;;;;;;;11.02;2.53;;;7.40;99.90;;;;;;5045595;28;20044;-63
2023/02/04 09:46:52;;;;;;;11.20;2.05;;;7.40;99.90;;;;;;5038730;28;20075;-64
2023/02/04 09:49:18;;;;;;;11.45;2.55;;;7.40;99.90;;;;;;5022796;28;20056;-64
2023/02/04 09:51:46;;;;;;;12.77;2.38;;;7.40;99.90;;;;;;5043003;28;20041;-64
2023/02/04 09:54:14;;;;;;;11.90;2.22;;;7.50;99.90;;;;;;5032629;28;20049;-64
2023/02/04 09:56:40;;;;;;;11.70;2.03;;;7.50;99.90;;;;;;5044812;28;20496;-64
2023/02/04 09:59:12;;;;;;;14.63;2.58;;;7.50;99.90;;;;;;5050222;28;20047;-64
2023/02/04 10:01:38;;;;;;;14.23;2.40;;;7.50;99.90;;;;;;5032843;28;20052;-64
2023/02/04 10:04:04;;;;;;;15.15;2.72;;;7.50;99.90;;;;;;5052083;28;20325;-64
2023/02/04 10:06:30;;;;;;;13.05;2.28;;;7.50;99.90;;;;;;5050488;28;20037;-64
2023/02/04 10:08:56;;;;;;;9.55;2.22;;;7.50;99.90;;;;;;5026114;28;20049;-63
2023/02/04 10:11:25;;;;;;;15.18;2.80;;;7.60;99.90;;;;;;5033814;28;20043;-63
2023/02/04 10:13:53;;;;;;;18.42;3.13;;;7.50;99.90;;;;;;5051945;28;20040;-63
2023/02/04 10:16:33;;;;;;;12.05;2.83;;;7.50;99.90;;;;;;5047452;28;20045;-63
2023/02/04 10:19:03;;;;;;;12.65;2.92;;;7.50;99.90;;;;;;5048809;28;20047;-64
2023/02/04 10:21:32;;;;;;;14.70;3.17;;;7.50;99.90;;;;;;5045564;28;20479;-62
2023/02/04 10:24:00;;;;;;;14.15;3.13;;;7.50;99.90;;;;;;5050470;28;20056;-62
2023/02/04 10:26:28;;;;;;;15.95;3.10;;;7.50;99.90;;;;;;5033278;28;20474;-61
2023/02/04 10:29:03;;;;;;;16.40;3.10;;;7.50;99.90;;;;;;5033729;28;20055;-62
2023/02/04 10:31:36;;;;;;;12.13;2.78;;;7.50;99.90;;;;;;5027043;28;20099;-64
2023/02/04 10:34:14;;;;;;;13.07;2.60;;;7.50;99.90;;;;;;5051520;28;20037;-63
2023/02/04 10:36:42;;;;;;;13.93;2.85;;;7.50;99.90;;;;;;5050978;28;20095;-64
2023/02/04 10:39:12;;;;;;;13.88;2.83;;;7.60;99.90;;;;;;5051090;28;20036;-63
2023/02/04 10:41:43;;;;;;;12.48;2.70;;;7.50;99.90;;;;;;5050556;28;20032;-64
2023/02/04 10:44:11;;;;;;;12.52;2.55;;;7.40;99.90;;;;;;5051293;28;20040;-63
2023/02/04 10:46:37;;;;;;;12.13;2.88;;;7.40;99.90;;;;;;5032896;28;20041;-64
2023/02/04 10:49:23;;;;;;;13.68;3.40;;;7.30;99.90;;;;;;5033212;28;20041;-63
2023/02/04 10:51:51;;;;;;;14.30;2.67;;;7.30;99.90;;;;;;5032869;28;20051;-63
2023/02/04 10:54:31;;;;;;;11.82;2.67;;;7.30;99.90;;;;;;5032796;28;20037;-64
2023/02/04 10:57:21;;;;;;;16.13;2.55;;;7.30;99.90;;;;;;5032641;28;20120;-63
2023/02/04 10:59:50;;;;;;;12.85;2.17;;;7.30;99.90;;;;;;5030549;28;20041;-63
2023/02/04 11:02:42;;;;;;;14.43;2.50;;;7.30;99.90;;;;;;5050532;28;20040;-64
2023/02/04 11:05:14;;;;;;;12.18;2.60;;;7.30;99.90;;;;;;5050719;28;20056;-63
2023/02/04 11:07:39;;;;;;;13.60;2.83;;;7.00;99.90;;;;;;5050806;28;20123;-64
2023/02/04 11:10:10;;;;;;;11.15;2.42;;;7.30;99.90;;;;;;5033235;28;20498;-63
2023/02/04 11:12:43;;;;;;;8.15;2.03;;;7.30;99.90;;;;;;5050667;28;20108;-64
2023/02/04 11:15:43;;;;;;;9.27;2.25;;;7.40;99.90;;;;;;5048932;28;20094;-64
2023/02/04 11:18:26;;;;;;;11.90;3.05;;;7.40;99.90;;;;;;5049527;28;20048;-64
2023/02/04 11:20:55;;;;;;;13.35;3.28;;;7.40;99.90;;;;;;5032868;28;20036;-64
2023/02/04 11:23:28;;;;;;;15.38;3.45;;;7.40;99.90;;;;;;5025216;28;20076;-63
2023/02/04 11:26:15;;;;;;;15.35;2.88;;;7.40;99.90;;;;;;5046390;28;20048;-63
2023/02/04 11:28:45;;;;;;;9.30;2.58;;;7.50;99.90;;;;;;5032907;28;20407;-64
2023/02/04 11:31:25;;;;;;;10.80;2.60;;;7.60;99.90;;;;;;5050483;28;20377;-64
2023/02/04 11:34:12;;;;;;;9.30;2.45;;;7.60;99.90;;;;;;5046649;28;20461;-64
2023/02/04 11:37:03;;;;;;;13.23;2.40;;;7.80;99.90;;;;;;5027230;28;20528;-64
2023/02/04 11:39:46;;;;;;;13.23;2.55;;;7.90;99.90;;;;;;5026942;28;20048;-64
2023/02/04 11:42:16;;;;;;;13.90;2.60;;;8.00;99.90;;;;;;5049556;28;20135;-62
2023/02/04 11:44:51;;;;;;;11.88;2.35;;;8.10;99.90;;;;;;5050486;28;20048;-63
2023/02/04 11:47:17;;;;;;;13.73;2.63;;;8.30;99.90;;;;;;5031977;28;20084;-62
2023/02/04 11:49:45;;;;;;;11.65;2.92;;;8.40;99.90;;;;;;5032080;28;20106;-63
2023/02/04 11:52:13;;;;;;;8.65;2.10;;;8.60;99.90;;;;;;5050294;28;20503;-64
2023/02/04 11:54:39;;;;;;;9.80;2.28;;;8.70;99.90;;;;;;5050077;28;20036;-64
2023/02/04 11:57:05;;;;;;;12.15;2.53;;;8.80;99.90;;;;;;5032245;28;20045;-64
2023/02/04 11:59:31;;;;;;;11.95;2.85;;;8.90;99.90;;;;;;5032406;28;20121;-63
2023/02/04 12:02:15;;;;;;;13.32;2.58;;;8.90;99.90;;;;;;5044616;28;20127;-61
2023/02/04 12:04:51;;;;;;;13.55;2.97;;;9.10;99.90;;;;;;5050102;28;20133;-63
2023/02/04 12:07:24;;;;;;;12.93;3.40;;;9.20;99.90;;;;;;5030610;28;20454;-62
2023/02/04 12:09:50;;;;;;;14.77;2.97;;;9.20;99.90;;;;;;5032545;28;20060;-64
2023/02/04 12:12:28;;;;;;;17.08;2.92;;;9.20;99.90;;;;;;5050326;28;20032;-64
2023/02/04 12:15:35;;;;;;;12.25;2.72;;;9.30;99.90;;;;;;5049705;28;20411;-64
2023/02/04 12:18:08;;;;;;;14.15;2.63;;;9.40;99.90;;;;;;5049183;28;20102;-64
2023/02/04 12:20:35;;;;;;;13.07;2.72;;;9.40;99.90;;;;;;5049717;28;20029;-64
2023/02/04 12:23:01;;;;;;;11.93;3.08;;;9.40;99.90;;;;;;5049443;28;20040;-64
2023/02/04 12:25:26;;;;;;;11.10;3.33;;;9.40;99.90;;;;;;5049657;28;20033;-64
2023/02/04 12:27:54;;;;;;;20.60;3.55;;;9.50;99.90;;;;;;5050008;28;20037;-65
2023/02/04 12:30:21;;;;;;;14.48;2.80;;;9.50;99.90;;;;;;5041791;28;20051;-64
2023/02/04 12:32:47;;;;;;;19.25;3.67;;;9.50;99.90;;;;;;5029959;28;20047;-65
2023/02/04 12:35:13;;;;;;;12.45;3.33;;;9.50;99.90;;;;;;5024888;28;20135;-64
2023/02/04 12:37:38;;;;;;;14.68;2.88;;;9.60;99.90;;;;;;5034036;28;20467;-64
2023/02/04 12:40:05;;;;;;;16.95;2.78;;;9.60;99.90;;;;;;5052511;28;20120;-63
2023/02/04 12:42:30;;;;;;;19.45;3.10;;;9.60;99.90;;;;;;5053598;28;20033;-64
2023/02/04 12:44:56;;;;;;;11.88;3.33;;;9.60;99.90;;;;;;5027150;28;20056;-63
2023/02/04 12:47:21;;;;;;;14.43;3.10;;;9.60;99.90;;;;;;5052848;28;20037;-64
2023/02/04 12:49:47;;;;;;;16.10;3.72;;;9.50;99.90;;;;;;5053660;28;20107;-64